createdAt,value
2023-01-28T00:03:50.637Z,12.7
2023-01-28T00:08:53.124Z,13.1
2023-01-28T00:13:55.250Z,12.5
2023-01-28T00:18:57.231Z,13
2023-01-28T00:23:59.268Z,13
2023-01-28T00:29:01.634Z,13.1
2023-01-28T00:34:03.926Z,13.4
2023-01-28T00:39:05.987Z,13.7
2023-01-28T00:44:07.932Z,13.4
2023-01-28T00:49:09.987Z,13.4
2023-01-28T00:54:11.951Z,13.9
2023-01-28T00:59:14.002Z,13.7
2023-01-28T01:04:15.985Z,13.8
2023-01-28T01:09:18.011Z,14
2023-01-28T01:14:20.083Z,13.4
2023-01-28T01:19:22.037Z,13.9
2023-01-28T01:24:24.133Z,13.9
2023-01-28T01:29:26.321Z,13.7
2023-01-28T01:34:28.367Z,13.9
2023-01-28T01:39:30.398Z,14.2
2023-01-28T01:44:32.609Z,14.1
2023-01-28T01:49:34.849Z,13.8
2023-01-28T01:54:36.988Z,15
2023-01-28T01:59:39.163Z,14.9
2023-01-28T02:04:41.253Z,14.6
2023-01-28T02:09:43.370Z,14.7
2023-01-28T02:14:45.832Z,22
2023-01-28T02:19:46.358Z,14.9
2023-01-28T02:24:48.439Z,15.4
2023-01-28T02:29:50.614Z,14.8
2023-01-28T02:34:52.949Z,14.2
2023-01-28T02:39:55.318Z,15.1
2023-01-28T02:44:58.346Z,14.6
2023-01-28T02:50:01.003Z,15.5
2023-01-28T02:55:03.597Z,15.1
2023-01-28T03:00:05.757Z,15.2
2023-01-28T03:05:07.861Z,14.5
2023-01-28T03:10:10.041Z,14.8
2023-01-28T03:15:12.413Z,14.6
2023-01-28T03:20:15.914Z,15.7
2023-01-28T03:25:18.464Z,15
2023-01-28T03:30:21.510Z,15.2
2023-01-28T03:35:24.459Z,15.3
2023-01-28T03:40:27.022Z,15.6
2023-01-28T03:45:29.165Z,16.1
2023-01-28T03:50:31.496Z,15.9
2023-01-28T03:55:33.553Z,16.2
2023-01-28T04:00:35.555Z,16
2023-01-28T04:05:37.449Z,16.8
2023-01-28T04:10:39.456Z,16.1
2023-01-28T04:15:41.445Z,16.7
2023-01-28T04:20:43.865Z,16.5
2023-01-28T04:25:47.975Z,16.8
2023-01-28T04:30:50.366Z,16
2023-01-28T04:35:52.890Z,15.2
2023-01-28T04:40:54.979Z,15.7
2023-01-28T04:45:57.206Z,15.7
2023-01-28T04:50:59.159Z,15.8
2023-01-28T04:56:01.178Z,15.8
2023-01-28T05:01:03.276Z,15.1
2023-01-28T05:06:09.607Z,15.5
2023-01-28T05:11:11.952Z,15.1
2023-01-28T05:16:14.003Z,15.3
2023-01-28T05:21:16.069Z,15.1
2023-01-28T05:26:18.089Z,15.3
2023-01-28T05:31:20.128Z,14.6
2023-01-28T05:36:22.413Z,15.1
2023-01-28T05:41:24.467Z,15.5
2023-01-28T05:46:27.150Z,15.1
2023-01-28T05:51:29.265Z,15.8
2023-01-28T05:56:31.407Z,16.8
2023-01-28T06:01:33.979Z,17.3
2023-01-28T06:06:36.644Z,15.3
2023-01-28T06:11:39.076Z,16
2023-01-28T06:16:41.547Z,16
2023-01-28T06:21:43.802Z,16.1
2023-01-28T06:31:51.606Z,16.1
2023-01-28T06:36:54.358Z,16.2
2023-01-28T06:41:56.927Z,15.4
2023-01-28T06:46:59.194Z,15.9
2023-01-28T06:52:01.419Z,15.4
2023-01-28T06:57:03.711Z,14.9
2023-01-28T07:02:06.045Z,15.2
2023-01-28T07:07:08.519Z,14.9
2023-01-28T07:12:10.831Z,14.7
2023-01-28T07:17:13.261Z,14.1
2023-01-28T07:22:15.926Z,15.4
2023-01-28T07:27:18.231Z,15
2023-01-28T07:32:20.496Z,15.4
2023-01-28T07:37:22.880Z,15.2
2023-01-28T07:42:25.023Z,14.6
2023-01-28T07:47:28.129Z,14.2
2023-01-28T07:52:31.076Z,14.5
2023-01-28T07:57:33.472Z,15
2023-01-28T08:02:36.025Z,13.8
2023-01-28T08:07:38.590Z,14.2
2023-01-28T08:12:40.952Z,14.4
2023-01-28T08:17:43.035Z,14.5
2023-01-28T08:22:45.076Z,14.3
2023-01-28T08:27:47.853Z,13.6
2023-01-28T08:32:53.576Z,13.5
2023-01-28T08:37:58.359Z,13.2
2023-01-28T08:43:01.439Z,12.6
2023-01-28T08:48:04.654Z,12.8
2023-01-28T08:53:07.466Z,12.7
2023-01-28T08:58:10.286Z,12.6
2023-01-28T09:03:12.730Z,13.2
2023-01-28T09:08:14.930Z,12.3
2023-01-28T09:13:17.319Z,11.5
2023-01-28T09:18:19.512Z,11.7
2023-01-28T09:23:21.548Z,11.9
2023-01-28T09:28:24.333Z,11.9
2023-01-28T09:33:27.222Z,12.1
2023-01-28T09:38:29.964Z,13.1
2023-01-28T09:43:32.228Z,13.2
2023-01-28T09:48:34.762Z,12.7
2023-01-28T09:53:36.954Z,12.6
2023-01-28T09:58:39.508Z,12.1
2023-01-28T10:03:41.875Z,12.1
2023-01-28T10:08:44.324Z,11.4
2023-01-28T10:13:46.461Z,11.4
2023-01-28T10:18:48.595Z,11.6
2023-01-28T10:23:50.601Z,12
2023-01-28T10:28:52.726Z,12.7
2023-01-28T10:33:55.131Z,12.3
2023-01-28T10:38:59.242Z,12
2023-01-28T10:44:01.749Z,12.4
2023-01-28T10:49:04.466Z,12.3
2023-01-28T10:54:06.748Z,11.4
2023-01-28T10:59:09.185Z,10.9
2023-01-28T11:04:11.884Z,10.2
2023-01-28T11:09:15.568Z,10.2
2023-01-28T11:14:18.420Z,10.3
2023-01-28T11:19:21.482Z,10.1
2023-01-28T11:24:24.448Z,10.4
2023-01-28T11:29:27.315Z,9.5
2023-01-28T11:34:29.792Z,8.8
2023-01-28T11:39:33.122Z,8.6
2023-01-28T11:44:35.683Z,8.6
2023-01-28T11:49:38.360Z,9.1
2023-01-28T11:54:42.358Z,10.4
2023-01-28T11:59:45.276Z,9.3
2023-01-28T12:04:48.288Z,9.4
2023-01-28T12:09:50.789Z,9.4
2023-01-28T12:14:52.987Z,9.7
2023-01-28T12:19:55.194Z,9.5
2023-01-28T12:24:57.489Z,9
2023-01-28T12:29:59.710Z,9.4
2023-01-28T12:35:02.066Z,9.2
2023-01-28T12:40:04.364Z,9.4
2023-01-28T12:45:06.660Z,9.8
2023-01-28T12:50:09.172Z,10.2
2023-01-28T12:55:11.358Z,10.4
2023-01-28T13:00:14.254Z,10.1
2023-01-28T13:05:17.674Z,10.4
2023-01-28T13:10:20.888Z,10.8
2023-01-28T13:15:23.266Z,11.2
2023-01-28T13:20:25.574Z,12
2023-01-28T13:25:28.146Z,11.7
2023-01-28T13:30:30.328Z,12.3
2023-01-28T13:35:32.817Z,13.2
2023-01-28T13:40:35.797Z,14.4
2023-01-28T13:45:38.415Z,14.9
2023-01-28T13:50:41.676Z,14.9
2023-01-28T13:55:49.145Z,15.7
2023-01-28T14:00:51.778Z,15.9
2023-01-28T14:05:54.065Z,15.8
2023-01-28T14:10:56.341Z,15.5
2023-01-28T14:15:58.796Z,16.3
2023-01-28T14:21:01.381Z,15.7
2023-01-28T14:26:03.710Z,17.3
2023-01-28T14:31:06.200Z,16
2023-01-28T14:36:11.078Z,16.4
2023-01-28T14:41:13.312Z,15.1
2023-01-28T14:46:15.490Z,15.5
2023-01-28T14:51:17.945Z,15.2
2023-01-28T14:56:20.301Z,16
2023-01-28T15:01:22.472Z,16.6
2023-01-28T15:06:24.930Z,17.4
2023-01-28T15:11:27.001Z,17.3
2023-01-28T15:16:29.517Z,18.2
2023-01-28T15:21:31.717Z,17.5
2023-01-28T15:26:33.976Z,17.4
2023-01-28T15:31:36.306Z,17.8
2023-01-28T15:36:38.439Z,17.5
2023-01-28T15:41:40.710Z,17.6
2023-01-28T15:46:43.082Z,18.5
2023-01-28T15:51:45.254Z,18.1
2023-01-28T15:56:47.816Z,17.6
2023-01-28T16:01:49.987Z,17.5
2023-01-28T16:06:52.098Z,17.6
2023-01-28T16:11:54.331Z,18.7
2023-01-28T16:16:56.608Z,18.5
2023-01-28T16:22:00.171Z,19.1
2023-01-28T16:27:02.516Z,18.3
2023-01-28T16:32:04.910Z,19
2023-01-28T16:37:07.359Z,19.7
2023-01-28T16:42:09.610Z,20.7
2023-01-28T16:47:11.954Z,29.1
2023-01-28T16:52:14.073Z,19.9
2023-01-28T16:57:16.091Z,19.2
2023-01-28T17:02:18.193Z,19.3
2023-01-28T17:07:22.037Z,19.1
2023-01-28T17:12:24.432Z,19.7
2023-01-28T17:17:26.751Z,18.8
2023-01-28T17:22:29.232Z,18.7
2023-01-28T17:27:31.254Z,18.8
2023-01-28T17:32:33.274Z,20.7
2023-01-28T17:37:35.369Z,20.7
2023-01-28T17:42:37.565Z,20.9
2023-01-28T17:47:40.284Z,20.8
2023-01-28T17:52:40.992Z,21.3
2023-01-28T17:57:43.187Z,21.9
2023-01-28T18:02:45.318Z,21.5
2023-01-28T18:07:47.923Z,22.6
2023-01-28T18:12:50.383Z,22.1
2023-01-28T18:17:52.697Z,20.5
2023-01-28T18:22:54.825Z,21
2023-01-28T18:27:57.042Z,20.6
2023-01-28T18:32:59.134Z,20.9
2023-01-28T18:38:01.306Z,20.7
2023-01-28T18:43:03.671Z,20.5
2023-01-28T18:48:07.192Z,21
2023-01-28T18:53:09.569Z,22.7
2023-01-28T18:58:12.843Z,21.9
2023-01-28T19:03:15.245Z,21.4
2023-01-28T19:08:17.656Z,21.9
2023-01-28T19:13:21.084Z,22.2
2023-01-28T19:18:23.759Z,23.2
2023-01-28T19:23:26.295Z,21.5
2023-01-28T19:28:30.817Z,22
2023-01-28T19:33:33.360Z,20.9
2023-01-28T19:38:35.774Z,21
2023-01-28T19:43:38.460Z,21
2023-01-28T19:48:42.947Z,20.3
2023-01-28T19:53:48.426Z,27
2023-01-28T19:58:51.503Z,22.9
2023-01-28T20:03:53.916Z,22.5
2023-01-28T20:08:55.920Z,22.3
2023-01-28T20:13:58.176Z,21
2023-01-28T20:19:01.015Z,21.1
2023-01-28T20:24:03.759Z,22.1
2023-01-28T20:29:06.699Z,22.8
2023-01-28T20:34:09.107Z,22
2023-01-28T20:39:11.816Z,21.5
2023-01-28T20:44:14.393Z,21.9
2023-01-28T20:49:16.867Z,22.6
2023-01-28T20:54:19.421Z,23.2
2023-01-28T20:59:22.632Z,21.7
2023-01-28T21:04:24.981Z,21.4
2023-01-28T21:14:36.209Z,21.2
2023-01-28T21:19:44.110Z,21.3
2023-01-28T21:24:42.582Z,22.9
2023-01-28T21:29:44.823Z,22.1
2023-01-28T21:34:48.406Z,21.5
2023-01-28T21:39:50.781Z,21.9
2023-01-28T21:44:53.100Z,23.2
2023-01-28T21:49:55.308Z,22
2023-01-28T21:54:57.653Z,21.8
2023-01-28T21:59:59.941Z,23.1
2023-01-28T22:05:02.149Z,23.4
2023-01-28T22:10:04.481Z,22.8
2023-01-28T22:15:06.530Z,20.9
2023-01-28T22:20:08.633Z,21.4
2023-01-28T22:25:11.034Z,21.4
2023-01-28T22:30:15.022Z,20.5
2023-01-28T22:35:18.593Z,21
2023-01-28T22:40:20.767Z,49.5
2023-01-28T22:45:24.048Z,23.8
2023-01-28T22:50:26.889Z,16.3
2023-01-28T22:55:29.095Z,12.4
2023-01-28T23:00:31.327Z,9.4
2023-01-28T23:05:33.506Z,7.8
2023-01-28T23:10:46.446Z,15.2
2023-01-28T23:15:43.121Z,7.3
2023-01-28T23:20:45.127Z,7.7
2023-01-28T23:25:47.216Z,7.7
2023-01-28T23:30:49.317Z,7.8
2023-01-28T23:35:52.961Z,7.6
2023-01-28T23:40:55.214Z,7.9
2023-01-28T23:45:57.575Z,7.9
2023-01-28T23:50:59.625Z,8.5
2023-01-28T23:56:02.302Z,8
